Almena, Wisconsin
Current Conditions -  °F | °C
As of 10:15 AM on Saturday 25 Oct 2014 (Local Time) from KUBE Reporting Station
Clear Clear  
Wind Chill: 50°   Ceiling: Unl
Heat Index: 50°   Visibility: 10mi
Dew Point: 32°   Wind: 14mph
Humidity: 50%   Direction: 300°WNW
Pressure: 29.98"   Gusts: 25mph
Location:  45.42°N, 92.03°W
Report Text: KUBE 251515Z AUTO 30012G22KT 10SM CLR 10/00 A2998 RMK AO2
Loading
Personal Weather Stations






























Interactive Weather Map
Tropical Storm Tracking
New forecast layout! Learn more

10-Day Weather Forecast

Advertisements
Track Severe Weather on mobile